Time,TemperatureF,DewpointF,PressureIn,WindDirection,WindDirectionDegrees,WindSpeedMPH,WindSpeedGustMPH,Humidity,HourlyPrecipIn,Conditions,Clouds,dailyrainin,SolarRadiationWatts/m^2,SoftwareType,DateUTC
2013-05-09 00:12:00,62.0,42.0,-100.00,North,11,1.0,3.0,48,-99.99,,,0.00,0.120000,,2013-05-09 07:12:00,
2013-05-09 01:11:00,57.0,45.0,-100.00,NNW,335,3.0,5.0,65,-99.99,,,0.00,0.120000,,2013-05-09 08:11:00,
2013-05-09 02:11:00,54.0,42.0,-100.00,SSE,157,4.0,5.0,63,-99.99,,,0.00,0.120000,,2013-05-09 09:11:00,
2013-05-09 03:12:00,51.0,42.0,-100.00,SSE,159,3.0,5.0,71,-99.99,,,0.00,0.120000,,2013-05-09 10:12:00,
2013-05-09 04:12:00,53.0,45.0,-100.00,SE,126,3.0,3.0,74,-99.99,,,-99.99,0.120000,,2013-05-09 11:12:00,
2013-05-09 05:11:00,50.0,44.0,-100.00,SSE,159,4.0,5.0,78,-99.99,,,-99.99,0.000000,,2013-05-09 12:11:00,
2013-05-09 06:12:00,48.0,44.0,-100.00,SSE,167,4.0,5.0,84,-99.99,,,0.00,0.120000,,2013-05-09 13:12:00,
2013-05-09 07:11:00,48.0,44.0,-100.00,SSE,157,4.0,5.0,84,-99.99,,,0.00,31.730000,,2013-05-09 14:11:00,
2013-05-09 08:11:00,53.0,46.0,-100.00,SSE,148,3.0,5.0,75,-99.99,,,0.00,45.439999,,2013-05-09 15:11:00,
2013-05-09 09:12:00,59.0,47.0,-100.00,South,169,3.0,5.0,64,-99.99,,,0.00,374.000000,,2013-05-09 16:12:00,
2013-05-09 10:12:00,64.0,47.0,-100.00,South,177,4.0,7.0,55,-99.99,,,0.00,574.820007,,2013-05-09 17:12:00,
2013-05-09 12:11:00,72.0,49.0,-100.00,NW,326,4.0,8.0,45,-99.99,,,0.00,860.030029,,2013-05-09 19:11:00,
2013-05-09 13:11:00,74.0,48.0,-100.00,North,352,4.0,11.0,39,-99.99,,,-99.99,935.570007,,2013-05-09 20:11:00,
2013-05-09 14:11:00,77.0,45.0,-100.00,North,5,4.0,8.0,31,-99.99,,,0.00,957.650024,,2013-05-09 21:11:00,
2013-05-09 15:12:00,81.0,42.0,-100.00,North,355,6.0,11.0,25,-99.99,,,0.00,929.760010,,2013-05-09 22:12:00,
2013-05-09 16:12:00,83.0,39.0,-100.00,North,7,6.0,11.0,21,-99.99,,,0.00,846.080017,,2013-05-09 23:12:00,
2013-05-09 17:11:00,84.0,37.0,-100.00,North,356,5.0,10.0,18,-99.99,,,0.00,709.520020,,2013-05-10 00:11:00,
2013-05-09 18:11:00,85.0,37.0,-100.00,North,359,4.0,8.0,18,-99.99,,,-99.99,537.750000,,2013-05-10 01:11:00,
2013-05-09 19:11:00,84.0,38.0,-100.00,NNE,15,5.0,9.0,19,-99.99,,,0.00,389.570007,,2013-05-10 02:11:00,
2013-05-09 20:11:00,75.0,44.0,-100.00,South,181,9.0,13.0,33,-99.99,,,0.00,53.689999,,2013-05-10 03:11:00,
2013-05-09 21:12:00,71.0,47.0,-100.00,NNE,14,1.0,3.0,43,-99.99,,,0.00,13.020000,,2013-05-10 04:12:00,
2013-05-09 22:12:00,65.0,44.0,-100.00,SSE,159,5.0,7.0,45,-99.99,,,-99.99,0.000000,,2013-05-10 05:12:00,
2013-05-09 23:12:00,63.0,45.0,-100.00,South,175,3.0,4.0,50,-99.99,,,0.00,0.000000,,2013-05-10 06:12:00,